Forside
METAR-TAF:

METAR-TAF

Lufthavne :

Herat, Afghanistan

Breddekreds: 34-13N, længdekreds: 062-13E, højde: 964 m

Aktuelle vejr

Denne rapport blev lavet for 29 minutter siden, kl. 17:30 UTC
Vind 2 kt fra varierende retninger
Temperatur 17°C
Fugtighed 55%
Tryk 1019 hPa
Sigt 10 km eller mere
Brudte skyer i en højde af 5000 ft

METAR: OAHR 031730Z VRB02KT 9999 BKN050 17/08 Q1019 RMK OVC200 A3011 BLU

Tid: 22:29 (17:59 UTC)

Vejrudsigter

Denne rapport blev lavet for 59 minutter siden, kl. 17:00 UTC
Foreløbig gælder fra 03 på 18 UTC til 04 på 18 UTC
Vind 3 kt fra varierende retninger
Sigt 10 km eller mere
Brudte skyer i en højde af 5000 ft
Midlertidig
fra 04 på 03 UTC til 04 på 09 UTC
Vind 12 kt fra vestnordvest med vindstød på up til 22 kt
Sigt: 8000 m
regnbyger
ændring
fra 04 på 12 UTC til 04 på 14 UTC
Sigt 10 km eller mere
ingen skyer under 1500m og ingen cumulonimbus

TAF: OAHR 031700Z 0318/0418 VRB03KT 9999 BKN050 TEMPO 0403/0409 30012G22KT 8000 SHRA BECMG 0412/0414 CAVOK

Vejrobservationer og prognoser fra mere end 4000 lufthavne (METAR og TAF).

De gule og røde prikker repræsenterer de meteorologiske stationer.

Flyt musen over at se navnet på stationen.

Så klik over at se vejr observationer og prognoser.

At skifte det kort: Klik på de grønne knapper med et sort kors for at zoome ind; på den grønne knap med en bindestreg for at zoome ud; eller på de grønne pile for tilstødende kort.


METAR-TAF: